createdAt,value
2019-03-25T00:02:42.824Z,5.00
2019-03-25T00:05:23.715Z,5.00
2019-03-25T00:08:04.997Z,5.00
2019-03-25T00:10:45.393Z,5.00
2019-03-25T00:13:26.192Z,5.10
2019-03-25T00:16:07.405Z,5.10
2019-03-25T00:18:48.412Z,5.10
2019-03-25T00:21:29.238Z,5.10
2019-03-25T00:24:10.840Z,5.10
2019-03-25T00:26:51.379Z,5.20
2019-03-25T00:29:32.216Z,5.10
2019-03-25T00:32:13.225Z,5.10
2019-03-25T00:34:54.157Z,5.20
2019-03-25T00:37:35.008Z,5.20
2019-03-25T00:40:15.705Z,5.20
2019-03-25T00:42:56.672Z,5.30
2019-03-25T00:45:37.020Z,5.30
2019-03-25T00:48:17.564Z,5.20
2019-03-25T00:50:46.160Z,5.20
2019-03-25T00:53:14.752Z,5.20
2019-03-25T00:55:43.314Z,5.10
2019-03-25T00:58:11.894Z,5.00
2019-03-25T01:00:40.528Z,5.00
2019-03-25T01:03:09.137Z,4.90
2019-03-25T01:05:37.696Z,4.90
2019-03-25T01:08:06.251Z,4.90
2019-03-25T01:10:54.185Z,4.90
2019-03-25T01:13:42.081Z,4.90
2019-03-25T01:16:30.023Z,4.90
2019-03-25T01:19:18.405Z,4.90
2019-03-25T01:22:06.329Z,4.90
2019-03-25T01:25:01.833Z,4.90
2019-03-25T01:27:43.792Z,4.90
2019-03-25T01:30:31.786Z,4.90
2019-03-25T01:33:19.684Z,4.90
2019-03-25T01:36:07.611Z,4.90
2019-03-25T01:38:55.508Z,4.90
2019-03-25T01:41:43.435Z,4.90
2019-03-25T01:44:31.340Z,4.90
2019-03-25T01:47:19.284Z,5.00
2019-03-25T01:50:07.282Z,5.00
2019-03-25T01:52:55.226Z,4.90
2019-03-25T01:58:50.032Z,5.00
2019-03-25T02:01:37.957Z,4.90
2019-03-25T02:04:19.253Z,5.10
2019-03-25T02:07:00.453Z,5.20
2019-03-25T02:09:29.837Z,5.20
2019-03-25T02:11:58.389Z,5.30
2019-03-25T02:14:26.976Z,5.30
2019-03-25T02:17:14.913Z,5.40
2019-03-25T02:20:03.177Z,5.40
2019-03-25T02:22:51.212Z,5.50
2019-03-25T02:25:40.654Z,5.50
2019-03-25T02:28:28.580Z,5.50
2019-03-25T02:31:16.510Z,5.50
2019-03-25T02:34:04.440Z,5.50
2019-03-25T02:36:52.345Z,5.50
2019-03-25T02:39:33.075Z,5.60
2019-03-25T02:44:44.252Z,5.60
2019-03-25T02:47:12.804Z,5.60
2019-03-25T02:49:41.353Z,5.60
2019-03-25T02:52:09.940Z,5.70
2019-03-25T02:54:38.490Z,5.70
2019-03-25T02:57:26.434Z,5.60
2019-03-25T03:00:35.049Z,5.60
2019-03-25T03:03:16.106Z,5.60
2019-03-25T03:05:56.888Z,5.60
2019-03-25T03:08:37.734Z,5.60
2019-03-25T03:11:19.102Z,5.60
2019-03-25T03:14:00.112Z,5.50
2019-03-25T03:16:41.267Z,5.50
2019-03-25T03:19:09.858Z,5.40
2019-03-25T03:21:57.752Z,5.40
2019-03-25T03:24:45.696Z,5.40
2019-03-25T03:27:33.592Z,5.30
2019-03-25T03:30:21.525Z,5.10
2019-03-25T03:33:09.429Z,5.10
2019-03-25T03:35:57.349Z,5.10
2019-03-25T03:38:45.281Z,5.00
2019-03-25T03:41:33.285Z,5.00
2019-03-25T03:44:21.209Z,5.20
2019-03-25T03:47:09.119Z,5.20
2019-03-25T03:49:57.045Z,5.20
2019-03-25T03:52:45.237Z,5.30
2019-03-25T03:55:53.915Z,5.20
2019-03-25T03:59:02.562Z,5.10
2019-03-25T04:01:51.218Z,5.00
2019-03-25T04:04:31.801Z,5.00
2019-03-25T04:07:13.020Z,4.90
2019-03-25T04:09:54.222Z,4.90
2019-03-25T04:12:35.227Z,4.90
2019-03-25T04:15:16.519Z,4.90
2019-03-25T04:17:57.414Z,4.80
2019-03-25T04:20:38.237Z,4.80
2019-03-25T04:23:19.317Z,4.80
2019-03-25T04:25:59.788Z,4.80
2019-03-25T04:28:40.418Z,4.80
2019-03-25T04:31:21.734Z,4.70
2019-03-25T04:34:02.756Z,4.70
2019-03-25T04:36:44.922Z,4.80
2019-03-25T04:39:26.137Z,4.80
2019-03-25T04:42:06.950Z,4.80
2019-03-25T04:44:47.460Z,4.80
2019-03-25T04:47:28.188Z,4.80
2019-03-25T04:50:08.737Z,4.80
2019-03-25T04:52:49.933Z,4.80
2019-03-25T04:55:30.938Z,4.90
2019-03-25T04:58:12.008Z,4.90
2019-03-25T05:00:43.890Z,4.80
2019-03-25T05:03:12.405Z,4.80
2019-03-25T05:06:00.303Z,4.80
2019-03-25T05:08:48.231Z,4.80
2019-03-25T05:14:29.090Z,4.80
2019-03-25T05:17:17.013Z,4.90
2019-03-25T05:23:11.981Z,4.90
2019-03-25T05:25:59.864Z,5.00
2019-03-25T05:28:47.796Z,5.00
2019-03-25T05:34:29.161Z,4.80
2019-03-25T05:37:17.064Z,4.80
2019-03-25T05:40:05.074Z,4.80
2019-03-25T05:42:52.963Z,4.70
2019-03-25T05:45:40.895Z,4.80
2019-03-25T05:48:28.804Z,4.90
2019-03-25T05:50:57.406Z,5.00
2019-03-25T05:53:26.005Z,5.00
2019-03-25T05:55:54.651Z,5.00
2019-03-25T05:58:42.664Z,5.00
2019-03-25T06:04:25.211Z,4.90
2019-03-25T06:07:05.997Z,4.90
2019-03-25T06:09:47.148Z,4.80
2019-03-25T06:12:28.354Z,4.90
2019-03-25T06:15:09.416Z,4.90
2019-03-25T06:17:50.725Z,5.00
2019-03-25T06:20:31.845Z,5.10
2019-03-25T06:23:13.073Z,5.00
2019-03-25T06:25:53.441Z,4.90
2019-03-25T06:28:34.479Z,4.90
2019-03-25T06:31:15.642Z,5.00
2019-03-25T06:33:44.191Z,5.00
2019-03-25T06:36:32.125Z,5.00
2019-03-25T06:39:20.044Z,4.90
2019-03-25T06:45:15.010Z,4.90
2019-03-25T06:48:02.904Z,4.90
2019-03-25T06:50:50.903Z,5.00
2019-03-25T06:53:38.798Z,5.00
2019-03-25T06:56:26.724Z,5.10
2019-03-25T06:59:14.653Z,5.20
2019-03-25T07:02:02.588Z,5.20
2019-03-25T07:04:50.558Z,5.30
2019-03-25T07:07:38.658Z,5.30
2019-03-25T07:10:45.900Z,5.40
2019-03-25T07:13:33.811Z,5.50
2019-03-25T07:16:21.756Z,5.70
2019-03-25T07:19:09.658Z,5.80
2019-03-25T07:21:38.244Z,5.80
2019-03-25T07:27:19.622Z,6.00
2019-03-25T07:30:08.131Z,5.90
2019-03-25T07:32:56.045Z,6.00
2019-03-25T07:35:44.076Z,5.80
2019-03-25T07:38:31.982Z,5.70
2019-03-25T07:41:19.904Z,5.80
2019-03-25T07:44:08.750Z,5.80
2019-03-25T07:46:38.049Z,5.70
2019-03-25T07:49:06.585Z,5.60
2019-03-25T07:51:54.960Z,5.60
2019-03-25T07:54:42.859Z,5.70
2019-03-25T07:57:30.802Z,5.70
2019-03-25T08:00:18.894Z,5.60
2019-03-25T08:03:06.830Z,5.50
2019-03-25T08:05:55.252Z,5.40
2019-03-25T08:08:35.824Z,5.30
2019-03-25T08:11:16.511Z,5.30
2019-03-25T08:13:57.032Z,5.30
2019-03-25T08:16:37.740Z,5.20
2019-03-25T08:19:18.939Z,5.30
2019-03-25T08:22:00.020Z,5.30
2019-03-25T08:24:40.671Z,5.40
2019-03-25T08:27:20.981Z,5.30
2019-03-25T08:30:02.057Z,5.30
2019-03-25T08:32:42.947Z,5.30
2019-03-25T08:35:24.281Z,5.40
2019-03-25T08:38:05.110Z,5.50
2019-03-25T08:40:45.967Z,5.50
2019-03-25T08:43:27.056Z,5.50
2019-03-25T08:46:07.563Z,5.60
2019-03-25T08:48:49.265Z,5.70
2019-03-25T08:51:29.877Z,5.70
2019-03-25T08:54:10.777Z,5.70
2019-03-25T08:56:39.333Z,5.70
2019-03-25T08:59:07.913Z,5.70
2019-03-25T09:01:36.935Z,5.60
2019-03-25T09:04:05.528Z,5.60
2019-03-25T09:06:34.111Z,5.60
2019-03-25T09:09:22.042Z,5.50
2019-03-25T09:15:17.021Z,5.50
2019-03-25T09:18:04.994Z,5.60
2019-03-25T09:20:52.922Z,5.60
2019-03-25T09:23:40.921Z,5.70
2019-03-25T09:26:28.916Z,5.70
2019-03-25T09:29:16.828Z,5.80
2019-03-25T09:32:04.841Z,5.90
2019-03-25T09:34:52.728Z,6.10
2019-03-25T09:37:40.758Z,6.30
2019-03-25T09:40:28.669Z,6.40
2019-03-25T09:43:16.599Z,6.60
2019-03-25T09:46:04.569Z,6.70
2019-03-25T09:48:52.521Z,6.70
2019-03-25T09:51:40.449Z,6.90
2019-03-25T09:54:28.348Z,7.10
2019-03-25T09:57:16.369Z,7.40
2019-03-25T10:00:26.544Z,7.80
2019-03-25T10:03:14.536Z,8.00
2019-03-25T10:05:43.152Z,8.20
2019-03-25T10:08:24.177Z,8.30
2019-03-25T10:11:04.667Z,8.50
2019-03-25T10:13:45.308Z,8.60
2019-03-25T10:16:13.940Z,8.50
2019-03-25T10:18:42.527Z,8.40
2019-03-25T10:21:30.428Z,8.40
2019-03-25T10:24:18.373Z,8.60
2019-03-25T10:27:06.272Z,8.70
2019-03-25T10:29:54.216Z,8.90
2019-03-25T10:32:42.118Z,9.10
2019-03-25T10:35:30.045Z,9.40
2019-03-25T10:38:19.693Z,9.70
2019-03-25T10:41:07.525Z,9.70
2019-03-25T10:43:55.446Z,9.90
2019-03-25T10:46:43.376Z,9.90
2019-03-25T10:52:38.172Z,9.70
2019-03-25T10:58:32.980Z,10.10
2019-03-25T11:01:20.979Z,10.10
2019-03-25T11:04:08.914Z,10.00
2019-03-25T11:06:56.845Z,9.90
2019-03-25T11:09:37.672Z,10.10
2019-03-25T11:12:18.709Z,10.00
2019-03-25T11:14:59.682Z,9.70
2019-03-25T11:17:40.145Z,9.30
2019-03-25T11:20:21.485Z,9.10
2019-03-25T11:23:02.070Z,8.80
2019-03-25T11:25:42.858Z,8.70
2019-03-25T11:28:23.401Z,8.50
2019-03-25T11:31:03.786Z,8.40
2019-03-25T11:33:45.105Z,8.20
2019-03-25T11:36:25.579Z,8.00
2019-03-25T11:39:06.136Z,7.70
2019-03-25T11:41:47.428Z,7.30
2019-03-25T11:44:29.084Z,7.10
2019-03-25T11:47:10.072Z,6.90
2019-03-25T11:49:51.481Z,6.80
2019-03-25T11:52:32.507Z,6.80
2019-03-25T11:55:13.464Z,6.90
2019-03-25T11:57:54.109Z,7.10
2019-03-25T12:00:35.091Z,7.30
2019-03-25T12:03:16.235Z,7.70
2019-03-25T12:05:57.409Z,8.00
2019-03-25T12:08:37.767Z,8.10
2019-03-25T12:11:18.196Z,8.40
2019-03-25T12:13:58.588Z,8.70
2019-03-25T12:16:39.350Z,8.90
2019-03-25T12:19:20.098Z,9.20
2019-03-25T12:22:00.913Z,9.30
2019-03-25T12:24:41.964Z,9.30
2019-03-25T12:27:23.107Z,9.40
2019-03-25T12:30:03.708Z,9.60
2019-03-25T12:32:44.740Z,9.80
2019-03-25T12:35:13.321Z,9.80
2019-03-25T12:38:01.323Z,9.80
2019-03-25T12:40:49.284Z,9.60
2019-03-25T12:43:37.227Z,9.20
2019-03-25T12:46:25.125Z,8.90
2019-03-25T12:48:53.713Z,8.80
2019-03-25T12:51:22.310Z,8.70
2019-03-25T12:53:50.877Z,8.60
2019-03-25T12:56:19.479Z,8.40
2019-03-25T12:59:07.417Z,8.10
2019-03-25T13:01:55.312Z,8.00
2019-03-25T13:04:43.301Z,7.80
2019-03-25T13:07:31.148Z,7.70
2019-03-25T13:10:12.308Z,7.70
2019-03-25T13:12:53.608Z,7.80
2019-03-25T13:15:34.496Z,8.00
2019-03-25T13:18:15.255Z,8.10
2019-03-25T13:20:56.237Z,8.30
2019-03-25T13:23:37.240Z,8.40
2019-03-25T13:26:16.168Z,8.60
2019-03-25T13:29:04.038Z,8.70
2019-03-25T13:31:51.974Z,8.70
2019-03-25T13:34:39.860Z,8.70
2019-03-25T13:37:27.820Z,8.80
2019-03-25T13:40:15.881Z,8.90
2019-03-25T13:43:03.807Z,9.00
2019-03-25T13:45:51.738Z,9.10
2019-03-25T13:48:39.665Z,9.10
2019-03-25T13:51:27.595Z,9.00
2019-03-25T13:54:15.500Z,8.90
2019-03-25T13:57:03.497Z,9.10
2019-03-25T13:59:51.424Z,9.10
2019-03-25T14:05:39.458Z,9.00
2019-03-25T14:08:20.373Z,9.00
2019-03-25T14:11:01.148Z,9.10
2019-03-25T14:13:49.244Z,9.20
2019-03-25T14:16:24.029Z,9.20
2019-03-25T14:19:04.496Z,9.40
2019-03-25T14:21:45.390Z,9.40
2019-03-25T14:24:25.720Z,9.40
2019-03-25T14:26:54.268Z,9.30
2019-03-25T14:29:22.852Z,9.30
2019-03-25T14:31:51.417Z,9.30
2019-03-25T14:34:44.707Z,9.30
2019-03-25T14:37:28.880Z,9.30
2019-03-25T14:40:16.803Z,9.40
2019-03-25T14:43:04.822Z,9.50
2019-03-25T14:45:52.701Z,9.60
2019-03-25T14:48:40.597Z,9.70
2019-03-25T14:51:28.549Z,9.80
2019-03-25T14:57:23.586Z,9.70
2019-03-25T15:03:20.239Z,9.50
2019-03-25T15:06:08.164Z,9.30
2019-03-25T15:08:48.757Z,9.10
2019-03-25T15:11:29.660Z,9.10
2019-03-25T15:14:13.636Z,9.10
2019-03-25T15:16:54.801Z,9.10
2019-03-25T15:19:36.004Z,9.10
2019-03-25T15:22:16.384Z,9.10
2019-03-25T15:24:57.278Z,9.00
2019-03-25T15:27:38.425Z,8.90
2019-03-25T15:30:18.930Z,8.90
2019-03-25T15:32:59.469Z,9.10
2019-03-25T15:35:39.886Z,9.30
2019-03-25T15:38:20.697Z,9.40
2019-03-25T15:41:01.388Z,9.50
2019-03-25T15:43:42.055Z,9.40
2019-03-25T15:46:23.390Z,9.40
2019-03-25T15:49:04.289Z,9.30
2019-03-25T15:51:44.666Z,9.30
2019-03-25T15:54:13.221Z,9.30
2019-03-25T15:56:41.773Z,9.30
2019-03-25T15:59:11.404Z,9.20
2019-03-25T16:01:39.976Z,9.30
2019-03-25T16:04:08.864Z,9.30
2019-03-25T16:06:56.760Z,9.30
2019-03-25T16:09:37.944Z,9.20
2019-03-25T16:12:19.063Z,9.20
2019-03-25T16:15:00.752Z,9.20
2019-03-25T16:17:43.239Z,9.20
2019-03-25T16:20:22.887Z,9.20
2019-03-25T16:26:09.785Z,9.20
2019-03-25T16:28:57.832Z,9.20
2019-03-25T16:31:45.739Z,9.20
2019-03-25T16:34:33.665Z,9.20
2019-03-25T16:40:09.260Z,9.10
2019-03-25T16:42:40.137Z,9.10
2019-03-25T16:45:08.264Z,9.10
2019-03-25T16:47:36.932Z,9.00
2019-03-25T16:50:24.980Z,9.10
2019-03-25T16:53:13.088Z,9.10
2019-03-25T16:56:01.137Z,9.00
2019-03-25T16:58:49.040Z,9.00
2019-03-25T17:01:37.122Z,8.90
2019-03-25T17:07:32.024Z,8.80
2019-03-25T17:10:19.907Z,8.70
2019-03-25T17:13:07.882Z,8.60
2019-03-25T17:15:55.766Z,8.60
2019-03-25T17:18:24.712Z,8.60
2019-03-25T17:20:53.265Z,8.60
2019-03-25T17:23:21.942Z,8.60
2019-03-25T17:25:53.357Z,8.60
2019-03-25T17:28:20.716Z,8.50
2019-03-25T17:31:08.660Z,8.50
2019-03-25T17:33:56.752Z,8.50
2019-03-25T17:36:44.693Z,8.50
2019-03-25T17:39:32.696Z,8.50
2019-03-25T17:42:20.629Z,8.40
2019-03-25T17:45:29.254Z,8.40
2019-03-25T17:48:17.173Z,8.40
2019-03-25T17:54:12.200Z,8.40
2019-03-25T18:00:08.821Z,8.60
2019-03-25T18:02:56.716Z,8.80
2019-03-25T18:08:50.365Z,8.90
2019-03-25T18:11:28.084Z,8.90
2019-03-25T18:14:09.025Z,9.10
2019-03-25T18:16:49.750Z,9.10
2019-03-25T18:19:29.516Z,9.10
2019-03-25T18:22:38.931Z,8.80
2019-03-25T18:25:07.165Z,8.50
2019-03-25T18:28:09.290Z,8.30
2019-03-25T18:30:44.657Z,8.20
2019-03-25T18:33:32.652Z,8.00
2019-03-25T18:36:01.246Z,7.90
2019-03-25T18:38:49.220Z,7.80
2019-03-25T18:41:37.587Z,7.70
2019-03-25T18:44:25.602Z,7.70
2019-03-25T18:47:27.460Z,7.60
2019-03-25T18:50:03.125Z,7.50
2019-03-25T18:53:02.817Z,7.50
2019-03-25T18:58:49.742Z,7.40
2019-03-25T19:01:54.380Z,7.40
2019-03-25T19:04:28.273Z,7.30
2019-03-25T19:07:16.399Z,7.20
2019-03-25T19:09:57.890Z,7.20
2019-03-25T19:12:38.568Z,7.20
2019-03-25T19:15:19.832Z,7.20
2019-03-25T19:18:01.574Z,7.10
2019-03-25T19:20:42.106Z,7.10
2019-03-25T19:23:22.718Z,7.10
2019-03-25T19:26:03.291Z,7.10
2019-03-25T19:28:44.479Z,7.00
2019-03-25T19:31:25.525Z,7.00
2019-03-25T19:34:06.727Z,7.00
2019-03-25T19:36:47.651Z,7.00
2019-03-25T19:39:29.201Z,7.00
2019-03-25T19:42:10.049Z,6.90
2019-03-25T19:44:51.393Z,6.90
2019-03-25T19:47:32.543Z,6.90
2019-03-25T19:50:13.398Z,6.90
2019-03-25T19:52:54.169Z,6.90
2019-03-25T19:55:35.291Z,6.80
2019-03-25T19:58:16.661Z,6.80
2019-03-25T20:00:57.709Z,6.70
2019-03-25T20:03:38.093Z,6.70
2019-03-25T20:06:26.052Z,6.70
2019-03-25T20:09:01.594Z,6.70
2019-03-25T20:11:30.188Z,6.60
2019-03-25T20:14:18.114Z,6.50
2019-03-25T20:17:06.038Z,6.50
2019-03-25T20:19:53.952Z,6.40
2019-03-25T20:22:41.932Z,6.40
2019-03-25T20:25:29.868Z,6.30
2019-03-25T20:28:17.784Z,6.20
2019-03-25T20:31:05.670Z,6.20
2019-03-25T20:33:53.605Z,6.20
2019-03-25T20:36:41.515Z,6.10
2019-03-25T20:39:29.603Z,6.10
2019-03-25T20:42:17.474Z,6.00
2019-03-25T20:45:26.231Z,6.00
2019-03-25T20:48:14.172Z,6.00
2019-03-25T20:51:02.182Z,6.00
2019-03-25T20:53:51.675Z,6.00
2019-03-25T20:56:39.748Z,5.90
2019-03-25T20:59:34.956Z,5.90
2019-03-25T21:02:22.891Z,5.90
2019-03-25T21:05:11.226Z,5.90
2019-03-25T21:07:59.143Z,5.90
2019-03-25T21:10:27.789Z,5.90
2019-03-25T21:13:08.462Z,5.80
2019-03-25T21:15:49.074Z,5.80
2019-03-25T21:18:29.936Z,5.80
2019-03-25T21:23:53.573Z,5.80
2019-03-25T21:26:33.837Z,5.80
2019-03-25T21:29:02.617Z,5.80
2019-03-25T21:31:31.217Z,5.70
2019-03-25T21:33:59.783Z,5.70
2019-03-25T21:36:28.535Z,5.70
2019-03-25T21:38:57.130Z,5.70
2019-03-25T21:41:25.749Z,5.70
2019-03-25T21:43:54.357Z,5.70
2019-03-25T21:46:23.003Z,5.80
2019-03-25T21:49:11.902Z,5.70
2019-03-25T21:51:59.820Z,5.70
2019-03-25T21:54:47.722Z,5.60
2019-03-25T21:57:35.608Z,5.60
2019-03-25T22:00:23.555Z,5.60
2019-03-25T22:03:12.424Z,5.60
2019-03-25T22:06:01.348Z,5.60
2019-03-25T22:11:49.204Z,5.60
2019-03-25T22:14:30.351Z,5.50
2019-03-25T22:17:11.645Z,5.50
2019-03-25T22:19:52.533Z,5.60
2019-03-25T22:22:33.113Z,5.50
2019-03-25T22:25:14.101Z,5.50
2019-03-25T22:27:54.620Z,5.50
2019-03-25T22:30:35.876Z,5.40
2019-03-25T22:33:25.680Z,5.40
2019-03-25T22:35:59.143Z,5.40
2019-03-25T22:38:27.766Z,5.40
2019-03-25T22:41:15.684Z,5.40
2019-03-25T22:44:03.725Z,5.40
2019-03-25T22:46:51.734Z,5.40
2019-03-25T22:49:39.733Z,5.40
2019-03-25T22:52:08.326Z,5.30
2019-03-25T22:54:36.956Z,5.30
2019-03-25T22:57:05.688Z,5.30
2019-03-25T22:59:34.461Z,5.30
2019-03-25T23:02:03.415Z,5.30
2019-03-25T23:04:51.351Z,5.20
2019-03-25T23:07:39.248Z,5.20
2019-03-25T23:10:27.178Z,5.20
2019-03-25T23:13:07.616Z,5.20
2019-03-25T23:15:36.203Z,5.20
2019-03-25T23:18:05.028Z,5.10
2019-03-25T23:20:33.626Z,5.10
2019-03-25T23:23:21.521Z,5.10
2019-03-25T23:29:03.442Z,5.10
2019-03-25T23:31:51.374Z,5.00
2019-03-25T23:34:39.272Z,5.00
2019-03-25T23:37:27.204Z,4.90
2019-03-25T23:40:15.100Z,4.90
2019-03-25T23:45:56.596Z,4.90
2019-03-25T23:48:44.498Z,4.90
2019-03-25T23:54:25.789Z,4.90
2019-03-25T23:57:14.388Z,4.90
